MST,Max TemperatureF,Mean TemperatureF,Min TemperatureF,Max Dew PointF,MeanDew PointF,Min DewpointF,Max Humidity, Mean Humidity, Min Humidity, Max Sea Level PressureIn, Mean Sea Level PressureIn, Min Sea Level PressureIn, Max VisibilityMiles, Mean VisibilityMiles, Min VisibilityMiles, Max Wind SpeedMPH, Mean Wind SpeedMPH, Max Gust SpeedMPH,PrecipitationIn, CloudCover, Events, WindDirDegrees
2013-11-1,49,40,30,32,26,21,82,61,40,30.19,30.09,29.88,10,10,10,30,14,40,T,3,,293
2013-11-2,62,47,31,30,24,22,72,47,21,30.14,29.85,29.53,10,10,10,32,18,40,0.00,0,,191
2013-11-3,50,41,31,34,27,20,82,59,36,29.87,29.66,29.45,10,10,8,25,13,31,T,5,Snow,295
2013-11-4,38,29,20,24,21,18,88,70,52,30.11,30.03,29.94,10,10,10,12,6,15,T,4,,354
2013-11-5,38,29,20,25,18,10,96,64,32,30.22,30.14,30.10,10,10,10,16,5,18,T,3,,259
2013-11-6,47,36,25,28,21,12,92,68,43,30.37,30.21,30.09,10,10,10,26,9,33,0.00,6,,270
2013-11-7,52,40,27,30,27,24,85,62,38,30.37,30.13,29.66,10,10,10,29,13,36,0.00,3,,181
2013-11-8,50,41,31,34,25,19,89,60,31,30.01,29.80,29.59,10,10,4,39,19,48,0.01,1,Snow,287
2013-11-9,44,37,29,26,24,23,72,59,45,30.28,30.21,30.04,10,10,10,14,7,18,0.00,6,,239
2013-11-10,63,45,27,33,27,24,92,60,27,30.21,30.14,30.04,10,10,9,20,6,24,0.00,1,,257
2013-11-11,31,27,23,28,25,21,100,89,78,30.66,30.46,30.21,10,5,0,20,6,23,0.02,8,Fog-Snow,28
2013-11-12,61,43,25,39,26,19,100,65,29,30.63,30.42,30.15,10,10,4,26,10,32,0.00,1,,170
2013-11-13,60,48,35,33,28,20,65,48,30,30.16,30.07,29.97,10,10,10,25,4,33,T,3,Rain,335
2013-11-14,49,39,28,30,25,22,78,58,37,30.08,29.94,29.69,10,10,10,17,7,23,0.00,0,,232
2013-11-15,51,36,21,30,24,17,92,60,28,29.68,29.53,29.37,10,10,10,13,5,15,0.00,0,,251
2013-11-16,46,33,20,24,20,16,91,62,33,29.39,29.35,29.26,10,10,10,18,5,21,0.00,3,,237
2013-11-17,44,32,19,30,22,9,84,53,22,30.07,29.68,29.39,10,7,2,31,13,39,0.01,5,Snow,286
2013-11-18,58,41,23,24,19,14,68,43,17,30.09,29.96,29.74,10,10,10,30,14,38,0.00,0,,180
2013-11-19,58,45,32,28,25,22,70,49,28,29.70,29.61,29.54,10,10,10,45,18,55,0.00,0,,209
2013-11-20,33,20,7,25,15,3,100,85,69,30.44,30.00,29.69,10,4,0,26,11,33,T,6,Fog-Snow,349
2013-11-21,20,14,7,6,4,1,88,69,49,30.71,30.58,30.27,10,10,6,20,8,23,T,4,,289
2013-11-22,35,25,15,8,3,-2,62,43,23,30.71,30.64,30.54,10,10,10,24,10,28,0.00,0,,260
2013-11-23,43,31,18,14,8,3,62,41,20,30.71,30.54,30.29,10,10,10,25,12,30,0.00,0,,193
2013-11-24,53,36,19,18,13,6,73,45,16,30.25,30.12,29.99,10,10,10,28,11,36,0.00,2,,274
2013-11-25,39,28,16,23,18,13,84,66,47,30.43,30.33,30.14,10,10,10,15,5,18,0.00,2,,295
2013-11-26,46,31,15,21,19,15,88,63,37,30.53,30.35,30.12,10,10,10,18,4,22,0.00,3,,185
2013-11-27,55,36,16,21,18,14,92,59,26,30.23,30.09,30.01,10,10,10,23,11,28,0.00,0,,274
2013-11-28,48,31,13,24,19,10,92,63,33,30.32,30.19,30.05,10,10,10,25,10,30,0.00,0,,167
2013-11-29,55,37,18,24,19,15,92,59,26,30.15,30.10,30.05,10,10,10,15,5,17,0.00,0,,225
2013-11-30,49,38,26,26,23,20,75,57,39,30.21,30.14,30.05,10,10,10,15,6,17,0.00,3,,239